createdAt,value
2023-08-28T00:00:48.790Z,97891.22
2023-08-28T00:03:16.390Z,97877.62
2023-08-28T00:05:43.880Z,97885.13
2023-08-28T00:08:11.577Z,97886.16
2023-08-28T00:10:41.302Z,97877.06
2023-08-28T00:13:08.764Z,97879.81
2023-08-28T00:15:35.930Z,97879.72
2023-08-28T00:18:03.231Z,97879.59
2023-08-28T00:20:30.474Z,97875.22
2023-08-28T00:22:57.604Z,97869.25
2023-08-28T00:25:24.368Z,97885.06
2023-08-28T00:27:51.928Z,97876.28
2023-08-28T00:30:19.231Z,97878.97
2023-08-28T00:32:46.423Z,97874.59
2023-08-28T00:35:13.683Z,97877.22
2023-08-28T00:37:40.522Z,97879.19
2023-08-28T00:40:08.954Z,97875.53
2023-08-28T00:42:36.357Z,97868.03
2023-08-28T00:45:04.244Z,97881.06
2023-08-28T00:47:31.070Z,97876.59
2023-08-28T00:49:58.907Z,97873.38
2023-08-28T00:52:26.028Z,97870.94
2023-08-28T00:54:52.867Z,97872.00
2023-08-28T00:57:20.111Z,97874.87
2023-08-28T00:59:47.638Z,97866.84
2023-08-28T01:02:14.498Z,97872.81
2023-08-28T01:04:41.732Z,97876.28
2023-08-28T01:07:27.899Z,97872.72
2023-08-28T01:09:58.373Z,97876.16
2023-08-28T01:12:54.961Z,97884.00
2023-08-28T01:15:25.023Z,97885.53
2023-08-28T01:17:57.278Z,97887.13
2023-08-28T01:20:26.519Z,97887.03
2023-08-28T01:23:06.215Z,97882.66
2023-08-28T01:25:33.979Z,97881.41
2023-08-28T01:28:01.438Z,97879.34
2023-08-28T01:30:28.412Z,97878.06
2023-08-28T01:32:55.673Z,97887.19
2023-08-28T01:35:26.020Z,97878.88
2023-08-28T01:38:20.972Z,97895.28
2023-08-28T01:40:51.349Z,97895.16
2023-08-28T01:43:24.171Z,97884.44
2023-08-28T01:45:54.854Z,97887.19
2023-08-28T01:48:22.075Z,97886.75
2023-08-28T01:50:49.248Z,97885.94
2023-08-28T01:53:16.859Z,97876.81
2023-08-28T01:55:46.981Z,97883.06
2023-08-28T01:58:14.433Z,97880.97
2023-08-28T02:00:41.487Z,97875.78
2023-08-28T02:03:11.324Z,97884.09
2023-08-28T02:05:38.557Z,97889.97
2023-08-28T02:08:06.014Z,97899.41
2023-08-28T02:10:33.492Z,97888.72
2023-08-28T02:13:00.629Z,97891.47
2023-08-28T02:15:28.101Z,97896.91
2023-08-28T02:17:55.609Z,97910.38
2023-08-28T02:20:23.149Z,97915.78
2023-08-28T02:22:50.289Z,97921.66
2023-08-28T02:25:21.844Z,97918.44
2023-08-28T02:27:49.739Z,97931.09
2023-08-28T02:30:17.490Z,97944.81
2023-08-28T02:32:45.749Z,97936.41
2023-08-28T02:35:13.047Z,97936.75
2023-08-28T02:37:40.372Z,97944.59
2023-08-28T02:40:08.367Z,97937.47
2023-08-28T02:42:35.485Z,97945.41
2023-08-28T02:45:02.705Z,97937.00
2023-08-28T02:47:29.987Z,97933.09
2023-08-28T02:49:57.136Z,97916.84
2023-08-28T02:52:24.255Z,97920.28
2023-08-28T02:54:51.081Z,97930.06
2023-08-28T02:57:18.704Z,97942.28
2023-08-28T02:59:45.679Z,97940.00
2023-08-28T03:02:12.811Z,97941.97
2023-08-28T03:04:40.354Z,97936.75
2023-08-28T03:07:07.425Z,97931.56
2023-08-28T03:09:34.577Z,97929.94
2023-08-28T03:12:02.050Z,97929.59
2023-08-28T03:14:28.880Z,97925.91
2023-08-28T03:16:55.695Z,97913.72
2023-08-28T03:19:23.106Z,97921.09
2023-08-28T03:21:50.204Z,97919.47
2023-08-28T03:24:19.007Z,97922.94
2023-08-28T03:26:47.656Z,97910.72
2023-08-28T03:29:14.750Z,97913.72
2023-08-28T03:31:41.915Z,97921.19
2023-08-28T03:34:09.628Z,97906.56
2023-08-28T03:36:36.422Z,97893.91
2023-08-28T03:39:03.881Z,97900.44
2023-08-28T03:41:33.169Z,97899.19
2023-08-28T03:44:00.434Z,97898.37
2023-08-28T03:46:27.795Z,97890.41
2023-08-28T03:48:55.294Z,97884.78
2023-08-28T03:51:22.473Z,97885.13
2023-08-28T03:53:49.203Z,97879.16
2023-08-28T03:56:16.351Z,97870.28
2023-08-28T03:58:43.471Z,97866.56
2023-08-28T04:01:10.712Z,97867.72
2023-08-28T04:03:37.911Z,97870.00
2023-08-28T04:06:05.465Z,97871.81
2023-08-28T04:08:32.297Z,97869.41
2023-08-28T04:11:00.208Z,97861.00
2023-08-28T04:13:27.761Z,97868.81
2023-08-28T04:15:54.558Z,97870.31
2023-08-28T04:18:21.655Z,97864.69
2023-08-28T04:20:49.191Z,97860.66
2023-08-28T04:23:16.649Z,97859.03
2023-08-28T04:25:43.484Z,97862.81
2023-08-28T04:28:10.944Z,97858.44
2023-08-28T04:30:38.660Z,97867.87
2023-08-28T04:33:07.431Z,97881.22
2023-08-28T04:35:34.987Z,97882.81
2023-08-28T04:38:02.185Z,97878.44
2023-08-28T04:40:29.348Z,97879.59
2023-08-28T04:42:57.046Z,97871.19
2023-08-28T04:45:24.269Z,97880.28
2023-08-28T04:47:51.141Z,97881.44
2023-08-28T04:50:18.610Z,97883.03
2023-08-28T04:52:45.410Z,97872.69
2023-08-28T04:55:12.592Z,97871.19
2023-08-28T04:57:39.681Z,97879.00
2023-08-28T05:00:07.795Z,97869.91
2023-08-28T05:02:36.239Z,97879.34
2023-08-28T05:05:04.249Z,97876.59
2023-08-28T05:07:31.633Z,97873.50
2023-08-28T05:09:58.440Z,97867.84
2023-08-28T05:12:25.907Z,97867.50
2023-08-28T05:14:53.337Z,97854.50
2023-08-28T05:17:20.094Z,97860.38
2023-08-28T05:19:47.190Z,97856.81
2023-08-28T05:22:14.253Z,97855.19
2023-08-28T05:24:41.871Z,97850.47
2023-08-28T05:27:09.951Z,97843.00
2023-08-28T05:29:36.776Z,97839.44
2023-08-28T05:32:04.397Z,97846.56
2023-08-28T05:34:32.769Z,97836.31
2023-08-28T05:36:59.881Z,97832.06
2023-08-28T05:39:26.646Z,97833.56
2023-08-28T05:41:54.053Z,97837.47
2023-08-28T05:44:21.503Z,97834.03
2023-08-28T05:46:49.367Z,97833.22
2023-08-28T05:49:17.137Z,97819.06
2023-08-28T05:51:44.703Z,97822.28
2023-08-28T05:54:12.123Z,97832.19
2023-08-28T05:56:38.974Z,97829.09
2023-08-28T05:59:06.971Z,97823.22
2023-08-28T06:01:34.378Z,97834.38
2023-08-28T06:04:01.506Z,97831.63
2023-08-28T06:06:28.313Z,97835.19
2023-08-28T06:08:55.711Z,97823.78
2023-08-28T06:11:23.180Z,97829.81
2023-08-28T06:13:50.707Z,97833.03
2023-08-28T06:16:18.206Z,97837.06
2023-08-28T06:18:45.681Z,97831.19
2023-08-28T06:21:13.147Z,97831.66
2023-08-28T06:23:40.201Z,97840.06
2023-08-28T06:26:07.654Z,97837.75
2023-08-28T06:28:34.771Z,97833.03
2023-08-28T06:31:05.276Z,97830.38
2023-08-28T06:33:32.758Z,97832.81
2023-08-28T06:35:59.522Z,97831.31
2023-08-28T06:38:26.620Z,97832.91
2023-08-28T06:40:54.186Z,97826.72
2023-08-28T06:43:21.377Z,97832.75
2023-08-28T06:45:48.503Z,97822.97
2023-08-28T06:48:15.983Z,97823.06
2023-08-28T06:50:43.095Z,97829.50
2023-08-28T06:53:10.188Z,97824.09
2023-08-28T06:55:37.402Z,97818.69
2023-08-28T06:58:04.933Z,97814.91
2023-08-28T07:00:32.106Z,97819.72
2023-08-28T07:03:00.038Z,97815.47
2023-08-28T07:05:27.270Z,97810.41
2023-08-28T07:07:54.478Z,97798.63
2023-08-28T07:10:21.983Z,97801.16
2023-08-28T07:12:48.795Z,97803.72
2023-08-28T07:15:18.664Z,97799.53
2023-08-28T07:17:46.359Z,97792.84
2023-08-28T07:20:13.194Z,97791.34
2023-08-28T07:22:40.669Z,97792.72
2023-08-28T07:25:08.270Z,97793.63
2023-08-28T07:27:35.570Z,97780.72
2023-08-28T07:30:05.452Z,97771.03
2023-08-28T07:32:34.019Z,97763.28
2023-08-28T07:35:01.505Z,97762.13
2023-08-28T07:37:32.122Z,97756.72
2023-08-28T07:39:59.187Z,97743.41
2023-08-28T07:42:26.490Z,97739.16
2023-08-28T07:44:53.987Z,97736.84
2023-08-28T07:47:21.651Z,97739.44
2023-08-28T07:49:48.622Z,97745.53
2023-08-28T07:52:16.106Z,97750.78
2023-08-28T07:54:42.970Z,97742.63
2023-08-28T07:57:10.490Z,97740.38
2023-08-28T07:59:37.525Z,97738.16
2023-08-28T08:02:05.826Z,97733.06
2023-08-28T08:04:33.813Z,97733.97
2023-08-28T08:07:01.927Z,97741.22
2023-08-28T08:09:29.027Z,97732.63
2023-08-28T08:11:56.391Z,97723.63
2023-08-28T08:14:24.615Z,97724.19
2023-08-28T08:16:51.483Z,97723.09
2023-08-28T08:19:18.861Z,97735.06
2023-08-28T08:21:45.960Z,97718.19
2023-08-28T08:24:12.773Z,97722.22
2023-08-28T08:26:39.967Z,97727.47
2023-08-28T08:29:07.361Z,97727.19
2023-08-28T08:31:34.226Z,97732.94
2023-08-28T08:34:01.413Z,97716.03
2023-08-28T08:36:28.829Z,97714.13
2023-08-28T08:38:55.598Z,97721.00
2023-08-28T08:41:22.910Z,97715.16
2023-08-28T08:43:50.013Z,97715.72
2023-08-28T08:46:18.700Z,97703.97
2023-08-28T08:48:47.462Z,97687.41
2023-08-28T08:51:16.965Z,97695.09
2023-08-28T08:54:06.243Z,97695.66
2023-08-28T08:56:35.615Z,97689.81
2023-08-28T08:59:04.598Z,97676.81
2023-08-28T09:01:32.553Z,97679.66
2023-08-28T09:04:03.432Z,97683.37
2023-08-28T09:06:33.953Z,97682.31
2023-08-28T09:11:38.931Z,97685.63
2023-08-28T09:14:07.262Z,97683.31
2023-08-28T09:16:36.010Z,97681.03
2023-08-28T09:19:03.522Z,97685.50
2023-08-28T09:21:39.223Z,97695.94
2023-08-28T09:24:12.887Z,97686.88
2023-08-28T09:26:40.237Z,97678.59
2023-08-28T09:29:08.886Z,97681.91
2023-08-28T09:31:38.260Z,97667.28
2023-08-28T09:34:08.047Z,97664.22
2023-08-28T09:36:40.625Z,97666.25
2023-08-28T09:39:10.648Z,97665.12
2023-08-28T09:41:47.174Z,97651.31
2023-08-28T09:44:16.862Z,97663.28
2023-08-28T09:46:45.613Z,97661.81
2023-08-28T09:49:14.559Z,97651.19
2023-08-28T09:51:58.389Z,97659.22
2023-08-28T09:54:25.527Z,97636.66
2023-08-28T09:56:54.108Z,97639.13
2023-08-28T09:59:20.958Z,97638.84
2023-08-28T10:01:48.877Z,97650.44
2023-08-28T10:04:21.075Z,97646.56
2023-08-28T10:06:53.295Z,97645.06
2023-08-28T10:09:23.596Z,97633.63
2023-08-28T10:11:52.229Z,97636.50
2023-08-28T10:14:22.058Z,97619.12
2023-08-28T10:17:00.711Z,97617.63
2023-08-28T10:19:38.230Z,97606.59
2023-08-28T10:22:08.494Z,97606.28
2023-08-28T10:24:42.764Z,97597.22
2023-08-28T10:27:12.155Z,97599.66
2023-08-28T10:29:40.880Z,97591.41
2023-08-28T10:32:10.916Z,97574.41
2023-08-28T10:34:41.409Z,97591.56
2023-08-28T10:37:26.384Z,97585.22
2023-08-28T10:40:02.689Z,97584.09
2023-08-28T10:42:31.249Z,97584.19
2023-08-28T10:44:59.760Z,97583.03
2023-08-28T10:47:29.024Z,97579.09
2023-08-28T10:49:59.566Z,97573.16
2023-08-28T10:52:28.350Z,97577.56
2023-08-28T10:54:58.738Z,97571.69
2023-08-28T10:57:28.843Z,97564.53
2023-08-28T10:59:56.543Z,97561.41
2023-08-28T11:02:24.222Z,97546.31
2023-08-28T11:04:51.724Z,97552.34
2023-08-28T11:07:32.452Z,97544.47
2023-08-28T11:10:32.439Z,97534.56
2023-08-28T11:13:07.590Z,97525.06
2023-08-28T11:15:39.615Z,97530.69
2023-08-28T11:18:28.663Z,97519.19
2023-08-28T11:21:01.191Z,97512.88
2023-08-28T11:23:40.860Z,97514.09
2023-08-28T11:26:27.446Z,97504.19
2023-08-28T11:28:54.591Z,97498.25
2023-08-28T11:31:21.862Z,97495.91
2023-08-28T11:33:51.016Z,97487.97
2023-08-28T11:36:26.962Z,97484.03
2023-08-28T11:38:56.089Z,97476.47
2023-08-28T11:41:24.186Z,97466.16
2023-08-28T11:43:51.395Z,97463.78
2023-08-28T11:46:18.830Z,97468.97
2023-08-28T11:48:46.779Z,97469.78
2023-08-28T11:51:14.365Z,97470.59
2023-08-28T11:53:43.954Z,97467.47
2023-08-28T11:56:13.544Z,97455.50
2023-08-28T11:58:43.131Z,97457.91
2023-08-28T12:01:12.209Z,97455.94
2023-08-28T12:03:42.095Z,97462.31
2023-08-28T12:06:10.536Z,97462.72
2023-08-28T12:08:43.024Z,97453.16
2023-08-28T12:11:12.097Z,97457.13
2023-08-28T12:13:39.769Z,97465.91
2023-08-28T12:16:21.170Z,97468.31
2023-08-28T12:18:52.989Z,97444.41
2023-08-28T12:21:33.606Z,97434.84
2023-08-28T12:24:00.880Z,97443.25
2023-08-28T12:26:27.982Z,97442.06
2023-08-28T12:28:55.178Z,97456.41
2023-08-28T12:31:33.871Z,97439.28
2023-08-28T12:34:11.334Z,97433.69
2023-08-28T12:36:40.490Z,97442.88
2023-08-28T12:39:10.348Z,97435.31
2023-08-28T12:41:48.757Z,97444.47
2023-08-28T12:44:15.982Z,97444.88
2023-08-28T12:46:43.266Z,97448.88
2023-08-28T12:49:12.360Z,97453.25
2023-08-28T12:51:41.124Z,97460.84
2023-08-28T12:54:08.017Z,97459.25
2023-08-28T12:56:36.322Z,97467.25
2023-08-28T12:59:03.793Z,97473.22
2023-08-28T13:01:31.009Z,97475.22
2023-08-28T13:03:58.260Z,97472.03
2023-08-28T13:06:25.501Z,97472.41
2023-08-28T13:08:53.129Z,97469.63
2023-08-28T13:11:20.344Z,97477.19
2023-08-28T13:13:48.513Z,97484.38
2023-08-28T13:16:16.419Z,97472.41
2023-08-28T13:18:43.281Z,97470.03
2023-08-28T13:21:12.306Z,97460.09
2023-08-28T13:23:39.117Z,97442.94
2023-08-28T13:26:05.935Z,97440.13
2023-08-28T13:28:33.427Z,97433.75
2023-08-28T13:31:00.533Z,97434.16
2023-08-28T13:33:27.406Z,97438.16
2023-08-28T13:35:54.989Z,97430.97
2023-08-28T13:38:23.078Z,97432.16
2023-08-28T13:40:50.370Z,97434.97
2023-08-28T13:43:17.600Z,97426.94
2023-08-28T13:45:44.735Z,97422.19
2023-08-28T13:48:11.534Z,97411.81
2023-08-28T13:50:41.022Z,97413.00
2023-08-28T13:53:09.259Z,97416.59
2023-08-28T13:55:37.748Z,97418.97
2023-08-28T13:58:05.464Z,97408.59
2023-08-28T14:00:32.335Z,97408.97
2023-08-28T14:02:59.280Z,97409.37
2023-08-28T14:05:26.790Z,97415.75
2023-08-28T14:07:54.793Z,97420.53
2023-08-28T14:10:21.780Z,97406.16
2023-08-28T14:12:49.931Z,97403.34
2023-08-28T14:15:17.069Z,97397.78
2023-08-28T14:17:44.492Z,97408.56
2023-08-28T14:20:12.120Z,97398.97
2023-08-28T14:22:39.609Z,97399.78
2023-08-28T14:25:07.349Z,97386.63
2023-08-28T14:27:46.391Z,97392.19
2023-08-28T14:30:19.087Z,97385.44
2023-08-28T14:32:47.397Z,97383.03
2023-08-28T14:35:16.900Z,97381.84
2023-08-28T14:37:44.564Z,97374.25
2023-08-28T14:40:11.611Z,97368.28
2023-08-28T14:42:38.600Z,97355.94
2023-08-28T14:45:06.777Z,97339.16
2023-08-28T14:47:33.997Z,97333.59
2023-08-28T14:50:00.904Z,97336.78
2023-08-28T14:52:28.559Z,97332.00
2023-08-28T14:54:56.297Z,97332.00
2023-08-28T14:57:23.483Z,97332.38
2023-08-28T14:59:50.915Z,97336.78
2023-08-28T15:02:19.281Z,97349.53
2023-08-28T15:04:46.451Z,97339.97
2023-08-28T15:07:14.312Z,97341.56
2023-08-28T15:09:43.874Z,97351.94
2023-08-28T15:12:12.153Z,97347.97
2023-08-28T15:14:41.304Z,97344.78
2023-08-28T15:17:08.579Z,97329.62
2023-08-28T15:19:35.803Z,97334.81
2023-08-28T15:22:03.315Z,97339.19
2023-08-28T15:24:32.960Z,97339.19
2023-08-28T15:27:00.192Z,97344.38
2023-08-28T15:29:27.511Z,97335.22
2023-08-28T15:31:54.345Z,97337.22
2023-08-28T15:34:21.632Z,97334.84
2023-08-28T15:36:48.904Z,97330.84
2023-08-28T15:39:16.364Z,97324.47
2023-08-28T15:41:43.282Z,97314.50
2023-08-28T15:44:11.048Z,97316.88
2023-08-28T15:46:38.194Z,97316.88
2023-08-28T15:49:05.599Z,97323.25
2023-08-28T15:51:32.790Z,97314.06
2023-08-28T15:54:00.308Z,97312.47
2023-08-28T15:56:27.839Z,97315.66
2023-08-28T15:59:08.426Z,97320.03
2023-08-28T16:01:41.830Z,97324.03
2023-08-28T16:04:08.872Z,97318.44
2023-08-28T16:06:36.168Z,97319.25
2023-08-28T16:09:04.877Z,97317.25
2023-08-28T16:11:35.706Z,97317.66
2023-08-28T16:14:03.655Z,97314.47
2023-08-28T16:16:31.423Z,97316.03
2023-08-28T16:19:03.031Z,97317.22
2023-08-28T16:21:32.498Z,97306.47
2023-08-28T16:24:00.664Z,97302.09
2023-08-28T16:26:28.221Z,97308.06
2023-08-28T16:28:55.627Z,97303.66
2023-08-28T16:31:23.307Z,97302.06
2023-08-28T16:33:50.865Z,97302.81
2023-08-28T16:36:18.027Z,97302.00
2023-08-28T16:38:45.605Z,97298.41
2023-08-28T16:41:13.137Z,97283.69
2023-08-28T16:43:39.960Z,97253.41
2023-08-28T16:46:08.079Z,97249.41
2023-08-28T16:48:35.429Z,97252.97
2023-08-28T16:51:02.722Z,97268.50
2023-08-28T16:53:30.368Z,97249.34
2023-08-28T16:55:58.024Z,97240.59
2023-08-28T16:58:25.915Z,97234.63
2023-08-28T17:00:53.559Z,97248.13
2023-08-28T17:03:21.511Z,97233.00
2023-08-28T17:05:55.615Z,97231.38
2023-08-28T17:08:23.653Z,97234.13
2023-08-28T17:10:50.910Z,97244.84
2023-08-28T17:13:18.726Z,97265.13
2023-08-28T17:15:46.806Z,97265.91
2023-08-28T17:18:14.142Z,97259.13
2023-08-28T17:20:42.258Z,97261.84
2023-08-28T17:23:10.243Z,97257.47
2023-08-28T17:25:37.910Z,97250.28
2023-08-28T17:28:06.514Z,97232.78
2023-08-28T17:30:33.814Z,97232.78
2023-08-28T17:33:00.828Z,97221.22
2023-08-28T17:35:31.631Z,97209.66
2023-08-28T17:37:59.746Z,97210.44
2023-08-28T17:40:27.964Z,97206.44
2023-08-28T17:42:55.429Z,97204.03
2023-08-28T17:45:22.719Z,97198.81
2023-08-28T17:47:49.938Z,97195.63
2023-08-28T17:50:17.694Z,97212.66
2023-08-28T17:52:44.982Z,97213.44
2023-08-28T17:55:12.442Z,97199.13
2023-08-28T17:57:40.285Z,97197.13
2023-08-28T18:00:11.296Z,97180.41
2023-08-28T18:02:57.720Z,97178.78
2023-08-28T18:05:26.728Z,97187.13
2023-08-28T18:07:54.162Z,97190.25
2023-08-28T18:10:21.735Z,97180.31
2023-08-28T18:12:49.475Z,97186.63
2023-08-28T18:15:19.092Z,97173.13
2023-08-28T18:17:48.047Z,97162.75
2023-08-28T18:20:16.062Z,97159.97
2023-08-28T18:22:43.619Z,97157.13
2023-08-28T18:25:11.712Z,97167.03
2023-08-28T18:27:52.878Z,97164.66
2023-08-28T18:30:27.985Z,97164.63
2023-08-28T18:32:55.373Z,97171.75
2023-08-28T18:35:23.472Z,97176.13
2023-08-28T18:37:51.330Z,97182.81
2023-08-28T18:40:18.904Z,97192.34
2023-08-28T18:42:46.797Z,97197.88
2023-08-28T18:45:14.475Z,97191.50
2023-08-28T18:47:42.265Z,97171.28
2023-08-28T18:50:10.260Z,97181.16
2023-08-28T18:52:37.460Z,97200.56
2023-08-28T18:55:06.504Z,97200.16
2023-08-28T18:57:38.624Z,97208.06
2023-08-28T19:00:08.288Z,97198.53
2023-08-28T19:02:36.365Z,97192.56
2023-08-28T19:05:04.348Z,97175.47
2023-08-28T19:07:32.048Z,97164.38
2023-08-28T19:09:59.796Z,97150.44
2023-08-28T19:12:29.341Z,97161.53
2023-08-28T19:14:57.723Z,97175.00
2023-08-28T19:17:27.096Z,97164.63
2023-08-28T19:19:54.853Z,97158.66
2023-08-28T19:22:24.698Z,97152.28
2023-08-28T19:24:52.207Z,97157.81
2023-08-28T19:27:20.843Z,97170.50
2023-08-28T19:29:48.997Z,97179.19
2023-08-28T19:32:16.995Z,97195.03
2023-08-28T19:34:45.216Z,97218.78
2023-08-28T19:37:12.392Z,97226.69
2023-08-28T19:39:40.224Z,97233.41
2023-08-28T19:42:08.434Z,97221.88
2023-08-28T19:44:35.730Z,97208.38
2023-08-28T19:47:05.072Z,97216.72
2023-08-28T19:49:34.769Z,97225.81
2023-08-28T19:52:04.307Z,97227.78
2023-08-28T19:54:32.210Z,97236.84
2023-08-28T19:56:59.866Z,97243.16
2023-08-28T19:59:27.915Z,97274.47
2023-08-28T20:01:55.588Z,97284.78
2023-08-28T20:04:26.387Z,97278.00
2023-08-28T20:06:54.079Z,97262.91
2023-08-28T20:09:21.510Z,97293.03
2023-08-28T20:11:49.061Z,97289.81
2023-08-28T20:14:17.545Z,97304.00
2023-08-28T20:16:45.699Z,97336.50
2023-08-28T20:19:13.304Z,97329.34
2023-08-28T20:21:41.488Z,97296.00
2023-08-28T20:24:10.765Z,97292.88
2023-08-28T20:26:38.947Z,97298.00
2023-08-28T20:29:07.089Z,97312.63
2023-08-28T20:31:34.930Z,97326.88
2023-08-28T20:34:03.036Z,97331.63
2023-08-28T20:36:31.030Z,97330.03
2023-08-28T20:38:58.417Z,97352.16
2023-08-28T20:41:26.607Z,97355.31
2023-08-28T20:43:54.594Z,97369.91
2023-08-28T20:46:22.377Z,97384.91
2023-08-28T20:48:50.337Z,97414.97
2023-08-28T20:51:18.233Z,97416.94
2023-08-28T20:53:45.728Z,97427.25
2023-08-28T20:56:13.114Z,97445.50
2023-08-28T20:58:40.860Z,97459.72
2023-08-28T21:01:08.095Z,97455.72
2023-08-28T21:03:37.097Z,97454.13
2023-08-28T21:06:04.590Z,97445.75
2023-08-28T21:08:31.756Z,97435.41
2023-08-28T21:11:01.230Z,97434.16
2023-08-28T21:13:29.044Z,97413.06
2023-08-28T21:15:59.951Z,97413.72
2023-08-28T21:18:27.856Z,97418.84
2023-08-28T21:20:55.227Z,97417.63
2023-08-28T21:23:22.010Z,97421.06
2023-08-28T21:25:49.216Z,97432.06
2023-08-28T21:28:16.935Z,97432.75
2023-08-28T21:30:46.830Z,97432.31
2023-08-28T21:33:14.002Z,97400.16
2023-08-28T21:35:41.130Z,97392.53
2023-08-28T21:38:08.682Z,97425.25
2023-08-28T21:40:35.757Z,97425.19
2023-08-28T21:43:02.851Z,97408.94
2023-08-28T21:45:29.931Z,97412.81
2023-08-28T21:47:56.755Z,97407.94
2023-08-28T21:50:23.846Z,97379.00
2023-08-28T21:52:50.933Z,97357.13
2023-08-28T21:55:18.036Z,97369.69
2023-08-28T21:57:45.133Z,97396.84
2023-08-28T22:00:13.205Z,97397.94
2023-08-28T22:02:40.414Z,97394.31
2023-08-28T22:05:08.512Z,97430.19
2023-08-28T22:07:36.037Z,97435.22
2023-08-28T22:10:03.211Z,97443.81
2023-08-28T22:12:30.157Z,97455.63
2023-08-28T22:14:59.962Z,97458.31
2023-08-28T22:17:28.845Z,97446.00
2023-08-28T22:19:55.612Z,97432.06
2023-08-28T22:22:22.890Z,97444.28
2023-08-28T22:24:49.946Z,97423.31
2023-08-28T22:27:16.715Z,97384.06
2023-08-28T22:29:49.712Z,97358.72
2023-08-28T22:32:17.145Z,97349.53
2023-08-28T22:34:44.255Z,97354.22
2023-08-28T22:37:11.052Z,97372.66
2023-08-28T22:39:38.117Z,97386.44
2023-08-28T22:42:05.442Z,97384.75
2023-08-28T22:44:32.896Z,97384.69
2023-08-28T22:46:59.952Z,97388.50
2023-08-28T22:49:27.156Z,97386.47
2023-08-28T22:51:54.265Z,97382.78
2023-08-28T22:54:21.405Z,97390.91
2023-08-28T22:56:48.149Z,97388.00
2023-08-28T22:59:15.585Z,97383.19
2023-08-28T23:01:42.568Z,97371.69
2023-08-28T23:04:09.342Z,97383.47
2023-08-28T23:06:36.796Z,97410.19
2023-08-28T23:09:04.614Z,97398.62
2023-08-28T23:11:31.413Z,97375.97
2023-08-28T23:13:58.502Z,97366.88
2023-08-28T23:16:26.131Z,97358.75
2023-08-28T23:18:53.276Z,97350.47
2023-08-28T23:21:20.057Z,97334.59
2023-08-28T23:23:47.503Z,97351.47
2023-08-28T23:26:14.610Z,97377.03
2023-08-28T23:28:42.004Z,97388.81
2023-08-28T23:31:08.783Z,97385.97
2023-08-28T23:33:35.591Z,97385.47
2023-08-28T23:36:03.062Z,97380.19
2023-08-28T23:38:30.470Z,97372.19
2023-08-28T23:40:58.309Z,97384.38
2023-08-28T23:43:25.557Z,97368.16
2023-08-28T23:45:52.885Z,97351.88
2023-08-28T23:48:20.172Z,97335.66
2023-08-28T23:50:47.317Z,97344.22
2023-08-28T23:53:15.033Z,97355.63
2023-08-28T23:55:41.827Z,97349.16
2023-08-28T23:58:08.686Z,97334.91
